sensor_id;sensor_type;location;lat;lon;timestamp;temperature;humidity
11536;DHT22;5824;49.336;8.652;2023-04-24T00:02:18;12.70;1.00
11536;DHT22;5824;49.336;8.652;2023-04-24T00:33:13;12.60;1.00
11536;DHT22;5824;49.336;8.652;2023-04-24T00:35:38;12.70;1.00
11536;DHT22;5824;49.336;8.652;2023-04-24T00:38:04;12.70;1.00
11536;DHT22;5824;49.336;8.652;2023-04-24T00:40:30;12.60;1.00
11536;DHT22;5824;49.336;8.652;2023-04-24T01:06:15;12.50;1.00
11536;DHT22;5824;49.336;8.652;2023-04-24T01:16:27;12.60;1.00
11536;DHT22;5824;49.336;8.652;2023-04-24T01:29:20;12.50;1.00
11536;DHT22;5824;49.336;8.652;2023-04-24T01:31:45;12.40;1.00
11536;DHT22;5824;49.336;8.652;2023-04-24T01:34:11;12.40;1.00
11536;DHT22;5824;49.336;8.652;2023-04-24T01:36:37;12.40;1.00
11536;DHT22;5824;49.336;8.652;2023-04-24T02:30:50;12.10;1.00
11536;DHT22;5824;49.336;8.652;2023-04-24T02:33:16;12.10;1.00
11536;DHT22;5824;49.336;8.652;2023-04-24T02:38:17;12.10;1.00
11536;DHT22;5824;49.336;8.652;2023-04-24T02:56:15;12.30;1.00
11536;DHT22;5824;49.336;8.652;2023-04-24T02:58:41;12.30;1.00
11536;DHT22;5824;49.336;8.652;2023-04-24T03:06:18;12.40;1.00
11536;DHT22;5824;49.336;8.652;2023-04-24T03:11:19;12.50;1.00
11536;DHT22;5824;49.336;8.652;2023-04-24T03:13:45;12.50;1.00
11536;DHT22;5824;49.336;8.652;2023-04-24T03:16:10;12.50;1.00
11536;DHT22;5824;49.336;8.652;2023-04-24T03:18:36;12.30;1.00
11536;DHT22;5824;49.336;8.652;2023-04-24T03:28:47;11.70;1.00
11536;DHT22;5824;49.336;8.652;2023-04-24T03:38:55;11.30;1.00
11536;DHT22;5824;49.336;8.652;2023-04-24T03:41:21;11.30;1.00
11536;DHT22;5824;49.336;8.652;2023-04-24T03:43:47;11.40;1.00
11536;DHT22;5824;49.336;8.652;2023-04-24T03:46:13;11.40;1.00
11536;DHT22;5824;49.336;8.652;2023-04-24T03:48:38;11.40;1.00
11536;DHT22;5824;49.336;8.652;2023-04-24T03:56:15;11.40;1.00
11536;DHT22;5824;49.336;8.652;2023-04-24T04:29:45;10.90;1.00
11536;DHT22;5824;49.336;8.652;2023-04-24T04:42:33;10.60;1.00
11536;DHT22;5824;49.336;8.652;2023-04-24T05:00:31;10.40;1.00
11536;DHT22;5824;49.336;8.652;2023-04-24T05:03:01;10.30;1.00
11536;DHT22;5824;49.336;8.652;2023-04-24T05:05:27;10.30;1.00
11536;DHT22;5824;49.336;8.652;2023-04-24T05:07:52;10.40;1.00
11536;DHT22;5824;49.336;8.652;2023-04-24T05:10:17;10.40;1.00
11536;DHT22;5824;49.336;8.652;2023-04-24T05:12:43;10.40;1.00
11536;DHT22;5824;49.336;8.652;2023-04-24T05:15:09;10.30;1.00
11536;DHT22;5824;49.336;8.652;2023-04-24T05:17:35;10.30;1.00
11536;DHT22;5824;49.336;8.652;2023-04-24T05:20:01;10.40;1.00
11536;DHT22;5824;49.336;8.652;2023-04-24T05:22:26;10.30;1.00
11536;DHT22;5824;49.336;8.652;2023-04-24T05:24:52;10.50;1.00
11536;DHT22;5824;49.336;8.652;2023-04-24T05:27:18;10.60;1.00
11536;DHT22;5824;49.336;8.652;2023-04-24T05:29:44;10.80;1.00
11536;DHT22;5824;49.336;8.652;2023-04-24T05:32:10;10.90;1.00
11536;DHT22;5824;49.336;8.652;2023-04-24T05:34:35;11.00;1.00
11536;DHT22;5824;49.336;8.652;2023-04-24T05:37:01;11.00;1.00
11536;DHT22;5824;49.336;8.652;2023-04-24T05:39:27;11.00;1.00
11536;DHT22;5824;49.336;8.652;2023-04-24T05:41:52;11.20;1.00
11536;DHT22;5824;49.336;8.652;2023-04-24T05:44:18;11.30;1.00
11536;DHT22;5824;49.336;8.652;2023-04-24T05:46:43;11.30;1.00
11536;DHT22;5824;49.336;8.652;2023-04-24T05:49:09;11.30;1.00
11536;DHT22;5824;49.336;8.652;2023-04-24T05:51:34;11.40;1.00
11536;DHT22;5824;49.336;8.652;2023-04-24T05:54:00;11.50;1.00
11536;DHT22;5824;49.336;8.652;2023-04-24T05:56:26;11.70;1.00
11536;DHT22;5824;49.336;8.652;2023-04-24T05:58:52;11.80;1.00
11536;DHT22;5824;49.336;8.652;2023-04-24T06:01:17;11.90;1.00
11536;DHT22;5824;49.336;8.652;2023-04-24T06:03:43;11.90;1.00
11536;DHT22;5824;49.336;8.652;2023-04-24T06:06:09;12.10;1.00
11536;DHT22;5824;49.336;8.652;2023-04-24T06:08:35;12.30;1.00
11536;DHT22;5824;49.336;8.652;2023-04-24T06:11:00;11.90;1.00
11536;DHT22;5824;49.336;8.652;2023-04-24T06:13:26;12.10;1.00
11536;DHT22;5824;49.336;8.652;2023-04-24T06:15:52;12.00;1.00
11536;DHT22;5824;49.336;8.652;2023-04-24T06:18:18;12.00;1.00
11536;DHT22;5824;49.336;8.652;2023-04-24T06:20:43;12.10;1.00
11536;DHT22;5824;49.336;8.652;2023-04-24T06:23:09;12.10;1.00
11536;DHT22;5824;49.336;8.652;2023-04-24T06:25:34;13.30;1.00
11536;DHT22;5824;49.336;8.652;2023-04-24T06:28:00;12.10;1.00
11536;DHT22;5824;49.336;8.652;2023-04-24T06:30:26;12.20;1.00
11536;DHT22;5824;49.336;8.652;2023-04-24T06:32:53;12.50;1.00
11536;DHT22;5824;49.336;8.652;2023-04-24T06:35:18;12.50;1.00
11536;DHT22;5824;49.336;8.652;2023-04-24T06:37:45;12.40;1.00
11536;DHT22;5824;49.336;8.652;2023-04-24T06:40:10;12.40;1.00
11536;DHT22;5824;49.336;8.652;2023-04-24T06:42:36;12.30;1.00
11536;DHT22;5824;49.336;8.652;2023-04-24T06:45:02;12.30;1.00
11536;DHT22;5824;49.336;8.652;2023-04-24T06:47:28;12.40;1.00
11536;DHT22;5824;49.336;8.652;2023-04-24T06:49:54;12.40;1.00
11536;DHT22;5824;49.336;8.652;2023-04-24T06:52:20;12.50;1.00
11536;DHT22;5824;49.336;8.652;2023-04-24T06:54:46;12.60;1.00
11536;DHT22;5824;49.336;8.652;2023-04-24T06:57:11;12.70;1.00
11536;DHT22;5824;49.336;8.652;2023-04-24T06:59:37;12.40;1.00
11536;DHT22;5824;49.336;8.652;2023-04-24T07:02:03;12.40;1.00
11536;DHT22;5824;49.336;8.652;2023-04-24T07:04:29;12.60;1.00
11536;DHT22;5824;49.336;8.652;2023-04-24T07:06:55;12.80;1.00
11536;DHT22;5824;49.336;8.652;2023-04-24T07:09:22;12.90;1.00
11536;DHT22;5824;49.336;8.652;2023-04-24T07:11:49;13.00;1.00
11536;DHT22;5824;49.336;8.652;2023-04-24T07:14:15;13.10;1.00
11536;DHT22;5824;49.336;8.652;2023-04-24T07:16:41;13.30;1.00
11536;DHT22;5824;49.336;8.652;2023-04-24T07:19:07;13.40;1.00
11536;DHT22;5824;49.336;8.652;2023-04-24T07:21:32;13.20;1.00
11536;DHT22;5824;49.336;8.652;2023-04-24T07:23:58;12.80;1.00
11536;DHT22;5824;49.336;8.652;2023-04-24T07:26:24;12.10;1.00
11536;DHT22;5824;49.336;8.652;2023-04-24T07:28:50;11.60;1.00
11536;DHT22;5824;49.336;8.652;2023-04-24T07:31:15;11.30;1.00
11536;DHT22;5824;49.336;8.652;2023-04-24T07:33:41;11.20;1.00
11536;DHT22;5824;49.336;8.652;2023-04-24T07:36:06;11.50;1.00
11536;DHT22;5824;49.336;8.652;2023-04-24T07:38:32;11.70;1.00
11536;DHT22;5824;49.336;8.652;2023-04-24T07:40:58;11.80;1.00
11536;DHT22;5824;49.336;8.652;2023-04-24T07:43:23;12.00;1.00
11536;DHT22;5824;49.336;8.652;2023-04-24T07:45:52;11.80;1.00
11536;DHT22;5824;49.336;8.652;2023-04-24T07:48:18;11.80;1.00
11536;DHT22;5824;49.336;8.652;2023-04-24T07:50:44;12.30;1.00
11536;DHT22;5824;49.336;8.652;2023-04-24T07:53:10;11.90;1.00
11536;DHT22;5824;49.336;8.652;2023-04-24T07:55:36;11.90;1.00
11536;DHT22;5824;49.336;8.652;2023-04-24T07:58:01;11.80;1.00
11536;DHT22;5824;49.336;8.652;2023-04-24T08:00:27;11.80;1.00
11536;DHT22;5824;49.336;8.652;2023-04-24T08:02:52;12.90;1.00
11536;DHT22;5824;49.336;8.652;2023-04-24T08:05:18;14.30;1.00
11536;DHT22;5824;49.336;8.652;2023-04-24T08:07:45;15.40;1.00
11536;DHT22;5824;49.336;8.652;2023-04-24T08:10:11;16.00;1.00
11536;DHT22;5824;49.336;8.652;2023-04-24T08:12:37;16.60;1.00
11536;DHT22;5824;49.336;8.652;2023-04-24T08:15:04;17.00;1.00
11536;DHT22;5824;49.336;8.652;2023-04-24T08:19:55;18.30;1.00
11536;DHT22;5824;49.336;8.652;2023-04-24T08:22:27;19.70;1.00
11536;DHT22;5824;49.336;8.652;2023-04-24T08:24:53;20.00;1.00
11536;DHT22;5824;49.336;8.652;2023-04-24T08:27:18;18.60;1.00
11536;DHT22;5824;49.336;8.652;2023-04-24T08:29:44;17.40;1.00
11536;DHT22;5824;49.336;8.652;2023-04-24T08:32:10;16.70;1.00
11536;DHT22;5824;49.336;8.652;2023-04-24T08:34:35;16.20;1.00
11536;DHT22;5824;49.336;8.652;2023-04-24T08:37:01;15.60;1.00
11536;DHT22;5824;49.336;8.652;2023-04-24T08:39:26;15.10;1.00
11536;DHT22;5824;49.336;8.652;2023-04-24T08:41:52;14.80;1.00
11536;DHT22;5824;49.336;8.652;2023-04-24T08:44:19;14.40;1.00
11536;DHT22;5824;49.336;8.652;2023-04-24T08:46:45;14.10;1.00
11536;DHT22;5824;49.336;8.652;2023-04-24T08:49:14;13.70;1.00
11536;DHT22;5824;49.336;8.652;2023-04-24T08:51:41;13.70;1.00
11536;DHT22;5824;49.336;8.652;2023-04-24T08:54:07;14.00;1.00
11536;DHT22;5824;49.336;8.652;2023-04-24T08:56:34;13.90;1.00
11536;DHT22;5824;49.336;8.652;2023-04-24T08:58:59;14.20;1.00
11536;DHT22;5824;49.336;8.652;2023-04-24T09:01:25;15.50;1.00
11536;DHT22;5824;49.336;8.652;2023-04-24T09:03:53;16.10;1.00
11536;DHT22;5824;49.336;8.652;2023-04-24T09:06:21;17.30;1.00
11536;DHT22;5824;49.336;8.652;2023-04-24T09:08:50;18.80;1.00
11536;DHT22;5824;49.336;8.652;2023-04-24T09:11:18;20.10;1.00
11536;DHT22;5824;49.336;8.652;2023-04-24T09:13:43;19.50;1.00
11536;DHT22;5824;49.336;8.652;2023-04-24T09:16:09;18.00;1.00
11536;DHT22;5824;49.336;8.652;2023-04-24T09:18:35;16.40;1.00
11536;DHT22;5824;49.336;8.652;2023-04-24T09:21:07;15.40;1.00
11536;DHT22;5824;49.336;8.652;2023-04-24T09:23:33;15.50;1.00
11536;DHT22;5824;49.336;8.652;2023-04-24T09:26:00;15.50;1.00
11536;DHT22;5824;49.336;8.652;2023-04-24T09:28:29;15.50;1.00
11536;DHT22;5824;49.336;8.652;2023-04-24T09:31:14;15.40;1.00
11536;DHT22;5824;49.336;8.652;2023-04-24T09:33:56;15.10;1.00
11536;DHT22;5824;49.336;8.652;2023-04-24T09:36:36;14.60;1.00
11536;DHT22;5824;49.336;8.652;2023-04-24T09:39:13;14.80;1.00
11536;DHT22;5824;49.336;8.652;2023-04-24T09:41:51;14.70;1.00
11536;DHT22;5824;49.336;8.652;2023-04-24T09:44:22;14.90;1.00
11536;DHT22;5824;49.336;8.652;2023-04-24T09:46:58;15.20;1.00
11536;DHT22;5824;49.336;8.652;2023-04-24T09:49:26;15.40;1.00
11536;DHT22;5824;49.336;8.652;2023-04-24T09:52:02;15.80;1.00
11536;DHT22;5824;49.336;8.652;2023-04-24T09:54:28;15.90;1.00
11536;DHT22;5824;49.336;8.652;2023-04-24T09:56:55;16.10;1.00
11536;DHT22;5824;49.336;8.652;2023-04-24T09:59:22;16.00;1.00
11536;DHT22;5824;49.336;8.652;2023-04-24T10:01:48;16.10;1.00
11536;DHT22;5824;49.336;8.652;2023-04-24T10:04:22;16.00;1.00
11536;DHT22;5824;49.336;8.652;2023-04-24T10:06:50;15.90;1.00
11536;DHT22;5824;49.336;8.652;2023-04-24T10:09:16;15.50;1.00
11536;DHT22;5824;49.336;8.652;2023-04-24T10:11:44;15.10;1.00
11536;DHT22;5824;49.336;8.652;2023-04-24T10:14:15;15.10;1.00
11536;DHT22;5824;49.336;8.652;2023-04-24T10:16:41;15.00;1.00
11536;DHT22;5824;49.336;8.652;2023-04-24T10:19:07;14.80;1.00
11536;DHT22;5824;49.336;8.652;2023-04-24T10:21:34;14.60;1.00
11536;DHT22;5824;49.336;8.652;2023-04-24T10:24:00;15.00;1.00
11536;DHT22;5824;49.336;8.652;2023-04-24T10:26:29;14.10;1.00
11536;DHT22;5824;49.336;8.652;2023-04-24T10:28:57;14.20;1.00
11536;DHT22;5824;49.336;8.652;2023-04-24T10:31:23;14.30;1.00
11536;DHT22;5824;49.336;8.652;2023-04-24T10:33:50;14.00;1.00
11536;DHT22;5824;49.336;8.652;2023-04-24T10:36:17;14.20;1.00
11536;DHT22;5824;49.336;8.652;2023-04-24T10:38:43;14.20;1.00
11536;DHT22;5824;49.336;8.652;2023-04-24T10:41:12;14.30;1.00
11536;DHT22;5824;49.336;8.652;2023-04-24T10:44:03;14.20;1.00
11536;DHT22;5824;49.336;8.652;2023-04-24T10:46:30;14.60;1.00
11536;DHT22;5824;49.336;8.652;2023-04-24T10:48:56;14.60;1.00
11536;DHT22;5824;49.336;8.652;2023-04-24T10:51:24;14.20;1.00
11536;DHT22;5824;49.336;8.652;2023-04-24T10:53:51;14.20;1.00
11536;DHT22;5824;49.336;8.652;2023-04-24T10:56:17;14.00;1.00
11536;DHT22;5824;49.336;8.652;2023-04-24T10:58:50;14.20;1.00
11536;DHT22;5824;49.336;8.652;2023-04-24T11:03:54;14.80;1.00
11536;DHT22;5824;49.336;8.652;2023-04-24T11:09:05;15.30;1.00
11536;DHT22;5824;49.336;8.652;2023-04-24T11:11:31;15.90;1.00
11536;DHT22;5824;49.336;8.652;2023-04-24T11:18:56;18.20;1.00
11536;DHT22;5824;49.336;8.652;2023-04-24T11:21:25;18.40;1.00
11536;DHT22;5824;49.336;8.652;2023-04-24T11:23:51;16.80;1.00
11536;DHT22;5824;49.336;8.652;2023-04-24T11:26:19;15.80;1.00
11536;DHT22;5824;49.336;8.652;2023-04-24T11:28:47;15.60;1.00
11536;DHT22;5824;49.336;8.652;2023-04-24T11:31:44;15.50;1.00
11536;DHT22;5824;49.336;8.652;2023-04-24T11:34:14;15.80;1.00
11536;DHT22;5824;49.336;8.652;2023-04-24T11:36:43;15.80;1.00
11536;DHT22;5824;49.336;8.652;2023-04-24T11:39:08;15.70;1.00
11536;DHT22;5824;49.336;8.652;2023-04-24T11:41:35;16.00;1.00
11536;DHT22;5824;49.336;8.652;2023-04-24T11:44:02;15.90;1.00
11536;DHT22;5824;49.336;8.652;2023-04-24T11:46:30;15.60;1.00
11536;DHT22;5824;49.336;8.652;2023-04-24T11:48:56;15.60;1.00
11536;DHT22;5824;49.336;8.652;2023-04-24T11:51:26;15.60;1.00
11536;DHT22;5824;49.336;8.652;2023-04-24T11:53:55;15.50;1.00
11536;DHT22;5824;49.336;8.652;2023-04-24T11:56:22;15.30;1.00
11536;DHT22;5824;49.336;8.652;2023-04-24T11:58:48;15.50;1.00
11536;DHT22;5824;49.336;8.652;2023-04-24T12:01:13;15.50;1.00
11536;DHT22;5824;49.336;8.652;2023-04-24T12:03:39;15.20;1.00
11536;DHT22;5824;49.336;8.652;2023-04-24T12:06:09;14.90;1.00
11536;DHT22;5824;49.336;8.652;2023-04-24T12:08:35;15.10;1.00
11536;DHT22;5824;49.336;8.652;2023-04-24T12:11:02;15.30;1.00
11536;DHT22;5824;49.336;8.652;2023-04-24T12:13:28;14.90;1.00
11536;DHT22;5824;49.336;8.652;2023-04-24T12:15:53;14.90;1.00
11536;DHT22;5824;49.336;8.652;2023-04-24T12:18:22;14.90;1.00
11536;DHT22;5824;49.336;8.652;2023-04-24T12:20:48;15.10;1.00
11536;DHT22;5824;49.336;8.652;2023-04-24T12:23:13;15.30;1.00
11536;DHT22;5824;49.336;8.652;2023-04-24T12:25:39;15.30;1.00
11536;DHT22;5824;49.336;8.652;2023-04-24T12:30:39;15.70;1.00
11536;DHT22;5824;49.336;8.652;2023-04-24T12:33:05;15.50;1.00
11536;DHT22;5824;49.336;8.652;2023-04-24T12:35:33;15.80;1.00
11536;DHT22;5824;49.336;8.652;2023-04-24T12:38:12;16.10;1.00
11536;DHT22;5824;49.336;8.652;2023-04-24T12:40:39;16.60;1.00
11536;DHT22;5824;49.336;8.652;2023-04-24T12:43:17;16.80;1.00
11536;DHT22;5824;49.336;8.652;2023-04-24T12:45:43;16.50;1.00
11536;DHT22;5824;49.336;8.652;2023-04-24T12:48:10;16.10;1.00
11536;DHT22;5824;49.336;8.652;2023-04-24T12:50:35;16.30;1.00
11536;DHT22;5824;49.336;8.652;2023-04-24T12:53:01;17.00;1.00
11536;DHT22;5824;49.336;8.652;2023-04-24T12:55:26;18.40;1.00
11536;DHT22;5824;49.336;8.652;2023-04-24T12:57:52;19.10;1.00
11536;DHT22;5824;49.336;8.652;2023-04-24T13:00:20;20.20;1.00
11536;DHT22;5824;49.336;8.652;2023-04-24T13:02:46;19.90;1.00
11536;DHT22;5824;49.336;8.652;2023-04-24T13:05:11;18.90;1.00
11536;DHT22;5824;49.336;8.652;2023-04-24T13:07:39;18.10;1.00
11536;DHT22;5824;49.336;8.652;2023-04-24T13:10:05;18.70;1.00
11536;DHT22;5824;49.336;8.652;2023-04-24T13:12:31;19.20;1.00
11536;DHT22;5824;49.336;8.652;2023-04-24T13:14:57;19.00;1.00
11536;DHT22;5824;49.336;8.652;2023-04-24T13:17:24;19.20;1.00
11536;DHT22;5824;49.336;8.652;2023-04-24T13:19:50;18.80;1.00
11536;DHT22;5824;49.336;8.652;2023-04-24T13:22:17;17.70;1.00
11536;DHT22;5824;49.336;8.652;2023-04-24T13:24:44;17.20;1.00
11536;DHT22;5824;49.336;8.652;2023-04-24T13:27:10;16.80;1.00
11536;DHT22;5824;49.336;8.652;2023-04-24T13:29:36;16.80;1.00
11536;DHT22;5824;49.336;8.652;2023-04-24T13:32:02;17.00;1.00
11536;DHT22;5824;49.336;8.652;2023-04-24T13:34:28;17.00;1.00
11536;DHT22;5824;49.336;8.652;2023-04-24T13:36:56;16.80;1.00
11536;DHT22;5824;49.336;8.652;2023-04-24T13:39:22;17.10;1.00
11536;DHT22;5824;49.336;8.652;2023-04-24T13:41:48;17.20;1.00
11536;DHT22;5824;49.336;8.652;2023-04-24T13:44:18;17.90;1.00
11536;DHT22;5824;49.336;8.652;2023-04-24T13:46:45;18.40;1.00
11536;DHT22;5824;49.336;8.652;2023-04-24T13:49:12;18.70;1.00
11536;DHT22;5824;49.336;8.652;2023-04-24T13:51:38;18.70;1.00
11536;DHT22;5824;49.336;8.652;2023-04-24T13:54:04;18.70;1.00
11536;DHT22;5824;49.336;8.652;2023-04-24T13:56:30;19.20;1.00
11536;DHT22;5824;49.336;8.652;2023-04-24T13:58:55;19.00;1.00
11536;DHT22;5824;49.336;8.652;2023-04-24T14:01:21;18.30;1.00
11536;DHT22;5824;49.336;8.652;2023-04-24T14:03:50;18.00;1.00
11536;DHT22;5824;49.336;8.652;2023-04-24T14:06:17;17.80;1.00
11536;DHT22;5824;49.336;8.652;2023-04-24T14:08:42;17.40;1.00
11536;DHT22;5824;49.336;8.652;2023-04-24T14:11:08;17.10;1.00
11536;DHT22;5824;49.336;8.652;2023-04-24T14:13:35;17.10;1.00
11536;DHT22;5824;49.336;8.652;2023-04-24T14:16:01;17.10;1.00
11536;DHT22;5824;49.336;8.652;2023-04-24T14:18:26;17.30;1.00
11536;DHT22;5824;49.336;8.652;2023-04-24T14:20:52;17.20;1.00
11536;DHT22;5824;49.336;8.652;2023-04-24T14:23:18;17.30;1.00
11536;DHT22;5824;49.336;8.652;2023-04-24T14:25:43;17.20;1.00
11536;DHT22;5824;49.336;8.652;2023-04-24T14:28:09;18.50;1.00
11536;DHT22;5824;49.336;8.652;2023-04-24T14:30:34;16.40;1.00
11536;DHT22;5824;49.336;8.652;2023-04-24T14:33:03;15.90;1.00
11536;DHT22;5824;49.336;8.652;2023-04-24T14:35:29;15.70;1.00
11536;DHT22;5824;49.336;8.652;2023-04-24T14:37:56;16.40;1.00
11536;DHT22;5824;49.336;8.652;2023-04-24T14:40:22;17.50;1.00
11536;DHT22;5824;49.336;8.652;2023-04-24T14:42:47;18.00;1.00
11536;DHT22;5824;49.336;8.652;2023-04-24T14:45:13;17.90;1.00
11536;DHT22;5824;49.336;8.652;2023-04-24T14:47:39;17.30;1.00
11536;DHT22;5824;49.336;8.652;2023-04-24T14:50:05;17.10;1.00
11536;DHT22;5824;49.336;8.652;2023-04-24T14:52:31;16.80;1.00
11536;DHT22;5824;49.336;8.652;2023-04-24T14:54:56;16.30;1.00
11536;DHT22;5824;49.336;8.652;2023-04-24T14:57:22;15.90;1.00
11536;DHT22;5824;49.336;8.652;2023-04-24T14:59:48;15.70;1.00
11536;DHT22;5824;49.336;8.652;2023-04-24T15:02:14;15.00;1.00
11536;DHT22;5824;49.336;8.652;2023-04-24T15:07:05;14.80;1.00
11536;DHT22;5824;49.336;8.652;2023-04-24T15:09:31;15.40;1.00
11536;DHT22;5824;49.336;8.652;2023-04-24T15:11:58;16.00;1.00
11536;DHT22;5824;49.336;8.652;2023-04-24T15:14:23;16.80;1.00
11536;DHT22;5824;49.336;8.652;2023-04-24T15:16:49;16.80;1.00
11536;DHT22;5824;49.336;8.652;2023-04-24T15:19:15;16.50;1.00
11536;DHT22;5824;49.336;8.652;2023-04-24T15:21:40;16.40;1.00
11536;DHT22;5824;49.336;8.652;2023-04-24T15:24:07;16.10;1.00
11536;DHT22;5824;49.336;8.652;2023-04-24T15:26:33;15.80;1.00
11536;DHT22;5824;49.336;8.652;2023-04-24T15:28:59;15.60;1.00
11536;DHT22;5824;49.336;8.652;2023-04-24T15:31:24;15.40;1.00
11536;DHT22;5824;49.336;8.652;2023-04-24T15:33:50;15.10;1.00
11536;DHT22;5824;49.336;8.652;2023-04-24T15:36:16;14.80;1.00
11536;DHT22;5824;49.336;8.652;2023-04-24T15:38:43;14.70;1.00
11536;DHT22;5824;49.336;8.652;2023-04-24T15:41:08;14.60;1.00
11536;DHT22;5824;49.336;8.652;2023-04-24T15:43:34;14.60;1.00
11536;DHT22;5824;49.336;8.652;2023-04-24T15:46:00;14.60;1.00
11536;DHT22;5824;49.336;8.652;2023-04-24T15:48:27;14.60;1.00
11536;DHT22;5824;49.336;8.652;2023-04-24T15:50:53;14.50;1.00
11536;DHT22;5824;49.336;8.652;2023-04-24T15:55:48;14.30;1.00
11536;DHT22;5824;49.336;8.652;2023-04-24T15:58:14;14.10;1.00
11536;DHT22;5824;49.336;8.652;2023-04-24T16:00:40;14.10;1.00
11536;DHT22;5824;49.336;8.652;2023-04-24T16:03:05;14.10;1.00
11536;DHT22;5824;49.336;8.652;2023-04-24T16:05:32;13.80;1.00
11536;DHT22;5824;49.336;8.652;2023-04-24T16:07:57;13.40;1.00
11536;DHT22;5824;49.336;8.652;2023-04-24T16:10:23;13.00;1.00
11536;DHT22;5824;49.336;8.652;2023-04-24T16:12:48;13.10;1.00
11536;DHT22;5824;49.336;8.652;2023-04-24T16:15:16;13.70;1.00
11536;DHT22;5824;49.336;8.652;2023-04-24T16:17:41;14.60;1.00
11536;DHT22;5824;49.336;8.652;2023-04-24T16:20:07;14.80;1.00
11536;DHT22;5824;49.336;8.652;2023-04-24T16:22:33;15.00;1.00
11536;DHT22;5824;49.336;8.652;2023-04-24T16:24:58;14.70;1.00
11536;DHT22;5824;49.336;8.652;2023-04-24T16:27:24;14.40;1.00
11536;DHT22;5824;49.336;8.652;2023-04-24T16:29:50;14.20;1.00
11536;DHT22;5824;49.336;8.652;2023-04-24T16:32:16;14.20;1.00
11536;DHT22;5824;49.336;8.652;2023-04-24T16:34:41;14.20;1.00
11536;DHT22;5824;49.336;8.652;2023-04-24T16:37:07;14.00;1.00
11536;DHT22;5824;49.336;8.652;2023-04-24T16:39:33;13.70;1.00
11536;DHT22;5824;49.336;8.652;2023-04-24T16:41:59;13.40;1.00
11536;DHT22;5824;49.336;8.652;2023-04-24T16:44:26;13.10;1.00
11536;DHT22;5824;49.336;8.652;2023-04-24T16:46:51;13.00;1.00
11536;DHT22;5824;49.336;8.652;2023-04-24T16:49:17;12.80;1.00
11536;DHT22;5824;49.336;8.652;2023-04-24T16:51:42;12.80;1.00
11536;DHT22;5824;49.336;8.652;2023-04-24T16:54:08;12.90;1.00
11536;DHT22;5824;49.336;8.652;2023-04-24T16:56:33;12.80;1.00
11536;DHT22;5824;49.336;8.652;2023-04-24T16:58:59;13.00;1.00
11536;DHT22;5824;49.336;8.652;2023-04-24T17:01:24;12.80;1.00
11536;DHT22;5824;49.336;8.652;2023-04-24T17:03:50;13.20;1.00
11536;DHT22;5824;49.336;8.652;2023-04-24T17:06:16;12.90;1.00
11536;DHT22;5824;49.336;8.652;2023-04-24T17:08:41;13.40;1.00
11536;DHT22;5824;49.336;8.652;2023-04-24T17:11:07;13.40;1.00
11536;DHT22;5824;49.336;8.652;2023-04-24T17:13:32;13.50;1.00
11536;DHT22;5824;49.336;8.652;2023-04-24T17:15:58;13.40;1.00
11536;DHT22;5824;49.336;8.652;2023-04-24T17:18:23;13.50;1.00
11536;DHT22;5824;49.336;8.652;2023-04-24T17:20:49;13.50;1.00
11536;DHT22;5824;49.336;8.652;2023-04-24T17:23:14;13.50;1.00
11536;DHT22;5824;49.336;8.652;2023-04-24T17:25:40;13.40;1.00
11536;DHT22;5824;49.336;8.652;2023-04-24T17:28:31;13.40;1.00
11536;DHT22;5824;49.336;8.652;2023-04-24T17:30:57;13.40;1.00
11536;DHT22;5824;49.336;8.652;2023-04-24T17:33:29;13.30;1.00
11536;DHT22;5824;49.336;8.652;2023-04-24T17:35:55;13.20;1.00
11536;DHT22;5824;49.336;8.652;2023-04-24T17:38:22;12.90;1.00
11536;DHT22;5824;49.336;8.652;2023-04-24T17:40:48;12.70;1.00
11536;DHT22;5824;49.336;8.652;2023-04-24T17:43:17;12.70;1.00
11536;DHT22;5824;49.336;8.652;2023-04-24T17:45:47;12.60;1.00
11536;DHT22;5824;49.336;8.652;2023-04-24T17:48:14;12.50;1.00
11536;DHT22;5824;49.336;8.652;2023-04-24T17:50:40;12.30;1.00
11536;DHT22;5824;49.336;8.652;2023-04-24T17:53:06;12.20;1.00
11536;DHT22;5824;49.336;8.652;2023-04-24T17:55:31;12.30;1.00
11536;DHT22;5824;49.336;8.652;2023-04-24T17:58:01;11.80;1.00
11536;DHT22;5824;49.336;8.652;2023-04-24T18:00:34;12.20;1.00
11536;DHT22;5824;49.336;8.652;2023-04-24T18:03:00;12.20;1.00
11536;DHT22;5824;49.336;8.652;2023-04-24T18:05:30;12.20;1.00
11536;DHT22;5824;49.336;8.652;2023-04-24T18:07:57;12.20;1.00
11536;DHT22;5824;49.336;8.652;2023-04-24T18:10:24;12.20;1.00
11536;DHT22;5824;49.336;8.652;2023-04-24T18:12:50;12.20;1.00
11536;DHT22;5824;49.336;8.652;2023-04-24T18:15:16;12.20;1.00
11536;DHT22;5824;49.336;8.652;2023-04-24T18:17:42;12.20;1.00
11536;DHT22;5824;49.336;8.652;2023-04-24T18:20:08;12.10;1.00
11536;DHT22;5824;49.336;8.652;2023-04-24T18:22:34;12.10;1.00
11536;DHT22;5824;49.336;8.652;2023-04-24T18:24:59;12.20;1.00
11536;DHT22;5824;49.336;8.652;2023-04-24T18:27:25;12.10;1.00
11536;DHT22;5824;49.336;8.652;2023-04-24T18:29:53;12.10;1.00
11536;DHT22;5824;49.336;8.652;2023-04-24T18:32:19;12.00;1.00
11536;DHT22;5824;49.336;8.652;2023-04-24T18:34:44;12.10;1.00
11536;DHT22;5824;49.336;8.652;2023-04-24T18:37:10;12.10;1.00
11536;DHT22;5824;49.336;8.652;2023-04-24T18:39:35;12.10;1.00
11536;DHT22;5824;49.336;8.652;2023-04-24T18:42:01;12.10;1.00
11536;DHT22;5824;49.336;8.652;2023-04-24T18:44:26;12.10;1.00
11536;DHT22;5824;49.336;8.652;2023-04-24T18:46:52;12.10;1.00
11536;DHT22;5824;49.336;8.652;2023-04-24T18:49:17;11.70;1.00
11536;DHT22;5824;49.336;8.652;2023-04-24T18:51:43;12.10;1.00
11536;DHT22;5824;49.336;8.652;2023-04-24T18:54:08;12.00;1.00
11536;DHT22;5824;49.336;8.652;2023-04-24T18:56:34;12.00;1.00
11536;DHT22;5824;49.336;8.652;2023-04-24T18:59:00;12.00;1.00
11536;DHT22;5824;49.336;8.652;2023-04-24T19:01:25;11.90;1.00
11536;DHT22;5824;49.336;8.652;2023-04-24T19:03:51;11.90;1.00
11536;DHT22;5824;49.336;8.652;2023-04-24T19:06:16;11.90;1.00
11536;DHT22;5824;49.336;8.652;2023-04-24T19:08:42;11.80;1.00
11536;DHT22;5824;49.336;8.652;2023-04-24T19:11:12;11.80;1.00
11536;DHT22;5824;49.336;8.652;2023-04-24T19:13:37;11.80;1.00
11536;DHT22;5824;49.336;8.652;2023-04-24T19:16:03;11.80;1.00
11536;DHT22;5824;49.336;8.652;2023-04-24T19:18:29;11.90;1.00
11536;DHT22;5824;49.336;8.652;2023-04-24T19:20:55;11.80;1.00
11536;DHT22;5824;49.336;8.652;2023-04-24T19:23:20;11.70;1.00
11536;DHT22;5824;49.336;8.652;2023-04-24T19:25:47;11.70;1.00
11536;DHT22;5824;49.336;8.652;2023-04-24T19:28:12;11.60;1.00
11536;DHT22;5824;49.336;8.652;2023-04-24T19:30:38;11.40;1.00
11536;DHT22;5824;49.336;8.652;2023-04-24T19:33:05;11.30;1.00
11536;DHT22;5824;49.336;8.652;2023-04-24T19:35:30;11.20;1.00
11536;DHT22;5824;49.336;8.652;2023-04-24T19:37:56;11.30;1.00
11536;DHT22;5824;49.336;8.652;2023-04-24T19:40:21;11.20;1.00
11536;DHT22;5824;49.336;8.652;2023-04-24T19:42:47;11.10;1.00
11536;DHT22;5824;49.336;8.652;2023-04-24T19:45:13;11.20;1.00
11536;DHT22;5824;49.336;8.652;2023-04-24T19:47:39;11.00;1.00
11536;DHT22;5824;49.336;8.652;2023-04-24T19:50:06;10.90;1.00
11536;DHT22;5824;49.336;8.652;2023-04-24T19:52:31;10.80;1.00
11536;DHT22;5824;49.336;8.652;2023-04-24T19:54:57;10.80;1.00
11536;DHT22;5824;49.336;8.652;2023-04-24T19:57:23;10.80;1.00
11536;DHT22;5824;49.336;8.652;2023-04-24T19:59:48;10.80;1.00
11536;DHT22;5824;49.336;8.652;2023-04-24T20:02:14;10.80;1.00
11536;DHT22;5824;49.336;8.652;2023-04-24T20:04:39;10.80;1.00